Time;durP1;ratioP1;P1;durP2;ratioP2;P2;SDS_P1;SDS_P2;PMS_P1;PMS_P2;Temp;Humidity;BMP_temperature;BMP_pressure;BME280_temperature;BME280_humidity;BME280_pressure;Samples;Min_cycle;Max_cycle;Signal;HPM_P1;HPM_P2
2023/07/21 00:01:03;;;;;;;1.73;1.00;;;27.40;44.20;;;;;;4979412;28;20487;-67
2023/07/21 00:03:30;;;;;;;1.63;1.00;;;27.40;44.20;;;;;;4977783;28;20122;-67
2023/07/21 00:05:56;;;;;;;1.23;0.90;;;27.40;44.20;;;;;;4977632;28;20023;-67
2023/07/21 00:08:24;;;;;;;2.15;1.08;;;27.40;44.20;;;;;;4962433;28;20113;-67
2023/07/21 00:10:50;;;;;;;2.60;0.90;;;27.40;44.20;;;;;;4978140;28;20533;-66
2023/07/21 00:13:15;;;;;;;1.73;0.90;;;27.40;44.20;;;;;;4976258;28;20038;-67
2023/07/21 00:15:42;;;;;;;1.50;1.00;;;27.40;44.20;;;;;;4981097;28;20030;-66
2023/07/21 00:18:07;;;;;;;2.15;1.10;;;27.40;44.30;;;;;;4982009;28;20038;-67
2023/07/21 00:20:34;;;;;;;1.27;0.90;;;27.40;44.30;;;;;;4979828;28;20042;-67
2023/07/21 00:23:00;;;;;;;1.60;0.90;;;27.30;44.20;;;;;;4978393;28;20077;-68
2023/07/21 00:25:26;;;;;;;1.63;1.00;;;27.30;44.20;;;;;;4965642;28;20033;-67
2023/07/21 00:27:52;;;;;;;1.58;1.00;;;27.30;44.20;;;;;;4981114;28;20030;-67
2023/07/21 00:30:19;;;;;;;1.65;1.00;;;27.30;44.30;;;;;;4977616;28;20457;-67
2023/07/21 00:32:44;;;;;;;1.20;0.90;;;27.30;44.80;;;;;;4964192;28;20066;-67
2023/07/21 00:35:10;;;;;;;1.45;0.95;;;27.30;44.20;;;;;;4966453;28;20100;-67
2023/07/21 00:37:38;;;;;;;1.20;0.85;;;27.30;44.20;;;;;;4978696;28;20394;-67
2023/07/21 00:40:05;;;;;;;1.77;1.10;;;27.30;44.20;;;;;;4980294;28;20045;-68
2023/07/21 00:42:31;;;;;;;1.20;0.90;;;27.30;44.30;;;;;;4980858;28;20018;-67
2023/07/21 00:44:57;;;;;;;1.15;0.88;;;27.30;44.30;;;;;;4979728;28;20114;-67
2023/07/21 00:47:28;;;;;;;1.48;0.93;;;27.30;44.30;;;;;;4965268;28;20035;-68
2023/07/21 00:49:54;;;;;;;1.00;0.75;;;27.30;44.30;;;;;;4980612;28;20026;-67
2023/07/21 00:52:20;;;;;;;1.58;0.93;;;27.30;44.30;;;;;;4979089;28;20034;-67
2023/07/21 00:54:47;;;;;;;1.60;0.93;;;27.30;44.30;;;;;;4963776;28;20026;-67
2023/07/21 00:57:13;;;;;;;1.85;0.93;;;27.30;44.30;;;;;;4966376;28;20410;-67
2023/07/21 00:59:39;;;;;;;1.40;0.95;;;27.30;44.30;;;;;;4979359;28;20035;-67
2023/07/21 01:02:05;;;;;;;1.65;1.00;;;27.30;44.80;;;;;;4978707;28;20105;-67
2023/07/21 01:04:32;;;;;;;2.28;0.95;;;27.30;44.30;;;;;;4980887;28;20026;-67
2023/07/21 01:07:05;;;;;;;1.58;1.00;;;27.30;44.30;;;;;;4978475;28;20100;-67
2023/07/21 01:09:33;;;;;;;1.50;0.90;;;27.30;44.40;;;;;;4979223;28;20030;-67
2023/07/21 01:11:59;;;;;;;2.03;0.90;;;27.20;44.30;;;;;;4964728;28;20093;-67
2023/07/21 01:14:26;;;;;;;1.60;1.00;;;27.30;44.40;;;;;;4981273;28;20313;-67
2023/07/21 01:16:51;;;;;;;1.60;0.90;;;27.20;44.30;;;;;;4980307;28;20076;-68
2023/07/21 01:19:17;;;;;;;1.80;1.10;;;27.20;44.30;;;;;;4979941;28;20451;-67
2023/07/21 01:21:53;;;;;;;1.30;0.80;;;27.20;44.30;;;;;;4976739;28;20041;-67
2023/07/21 01:24:23;;;;;;;1.65;0.90;;;27.20;44.30;;;;;;4980097;28;20142;-68
2023/07/21 01:26:49;;;;;;;1.33;0.88;;;27.20;44.30;;;;;;4962312;28;20030;-67
2023/07/21 01:29:19;;;;;;;1.40;0.90;;;27.20;44.40;;;;;;4979249;28;20121;-67
2023/07/21 01:31:48;;;;;;;1.77;0.90;;;27.20;44.40;;;;;;4962566;28;20588;-67
2023/07/21 01:34:15;;;;;;;2.08;0.85;;;27.20;44.40;;;;;;4980290;28;20033;-67
2023/07/21 01:36:42;;;;;;;1.17;0.90;;;27.20;44.40;;;;;;4979621;28;20711;-68
2023/07/21 01:39:08;;;;;;;1.85;1.10;;;27.20;44.40;;;;;;4979930;28;20046;-67
2023/07/21 01:41:35;;;;;;;1.70;1.00;;;27.20;44.40;;;;;;4980620;28;20126;-67
2023/07/21 01:44:01;;;;;;;1.52;0.90;;;27.20;44.40;;;;;;4978759;28;20022;-67
2023/07/21 01:46:27;;;;;;;1.10;0.90;;;27.20;44.40;;;;;;4961411;28;20121;-67
2023/07/21 01:48:52;;;;;;;0.98;0.80;;;27.20;44.40;;;;;;4980915;28;20035;-67
2023/07/21 01:51:20;;;;;;;1.58;0.88;;;27.10;44.40;;;;;;4963147;28;20035;-68
2023/07/21 01:53:56;;;;;;;1.75;1.00;;;27.10;44.30;;;;;;4979758;28;20081;-68
2023/07/21 01:56:30;;;;;;;0.95;0.75;;;27.10;44.30;;;;;;4978469;28;20035;-68
2023/07/21 01:59:00;;;;;;;1.02;0.88;;;27.10;44.40;;;;;;4979720;28;20031;-67
2023/07/21 02:01:27;;;;;;;1.38;0.90;;;27.10;44.40;;;;;;4978689;28;20027;-67
2023/07/21 02:03:53;;;;;;;1.10;0.90;;;27.10;44.40;;;;;;4962346;28;20031;-68
2023/07/21 02:06:19;;;;;;;1.30;0.90;;;27.10;44.40;;;;;;4975482;28;20467;-67
2023/07/21 02:08:44;;;;;;;1.20;0.90;;;27.10;44.40;;;;;;4979480;28;20030;-67
2023/07/21 02:11:10;;;;;;;1.73;1.10;;;27.10;44.40;;;;;;4980243;28;20038;-67
2023/07/21 02:13:36;;;;;;;1.70;0.90;;;27.10;44.40;;;;;;4979499;28;20035;-67
2023/07/21 02:16:02;;;;;;;1.15;0.80;;;27.10;44.40;;;;;;4978790;28;20038;-67
2023/07/21 02:18:27;;;;;;;1.67;1.10;;;27.10;44.40;;;;;;4978718;28;20435;-68
2023/07/21 02:20:53;;;;;;;1.40;0.90;;;27.10;44.40;;;;;;4978980;28;20464;-67
2023/07/21 02:23:19;;;;;;;1.45;0.90;;;27.10;44.40;;;;;;4961865;28;20041;-67
2023/07/21 02:25:44;;;;;;;1.02;0.80;;;27.10;44.40;;;;;;4977599;28;20081;-67
2023/07/21 02:28:10;;;;;;;1.48;0.90;;;27.10;44.40;;;;;;4979876;28;20482;-68
2023/07/21 02:30:36;;;;;;;1.73;1.25;;;27.10;44.40;;;;;;4979072;28;20451;-67
2023/07/21 02:33:02;;;;;;;1.38;1.00;;;27.10;44.40;;;;;;4979160;28;20026;-67
2023/07/21 02:35:28;;;;;;;1.00;0.90;;;27.00;44.40;;;;;;4981935;28;20030;-67
2023/07/21 02:37:54;;;;;;;0.95;0.80;;;27.00;44.40;;;;;;4976002;28;20041;-67
2023/07/21 02:40:19;;;;;;;1.67;0.98;;;27.00;44.40;;;;;;4977527;28;20031;-68
2023/07/21 02:42:45;;;;;;;1.27;0.85;;;27.00;44.40;;;;;;4980731;28;20427;-67
2023/07/21 02:45:11;;;;;;;1.25;0.95;;;27.00;44.40;;;;;;4978400;28;20027;-67
2023/07/21 02:47:37;;;;;;;1.20;0.77;;;27.00;44.40;;;;;;4975531;28;20018;-67
2023/07/21 02:50:08;;;;;;;1.23;0.90;;;27.00;44.40;;;;;;4977714;28;20029;-68
2023/07/21 02:52:34;;;;;;;0.93;0.80;;;27.00;44.40;;;;;;4976946;28;20582;-68
2023/07/21 02:54:59;;;;;;;1.38;0.80;;;27.00;44.40;;;;;;4964198;28;20117;-67
2023/07/21 02:57:25;;;;;;;1.33;0.80;;;27.00;44.40;;;;;;4980826;28;20434;-67
2023/07/21 02:59:52;;;;;;;1.35;0.82;;;27.00;44.40;;;;;;4979043;28;20564;-67
2023/07/21 03:02:18;;;;;;;1.58;0.82;;;27.00;44.40;;;;;;4962556;28;20068;-67
2023/07/21 03:04:43;;;;;;;1.33;0.90;;;27.00;44.40;;;;;;4977711;28;20066;-66
2023/07/21 03:07:11;;;;;;;1.48;0.85;;;27.00;44.40;;;;;;4977938;28;20027;-67
2023/07/21 03:09:37;;;;;;;1.20;0.85;;;27.00;44.50;;;;;;4962621;28;20033;-67
2023/07/21 03:12:03;;;;;;;1.67;0.90;;;27.00;44.40;;;;;;4978465;28;20029;-67
2023/07/21 03:14:28;;;;;;;1.30;0.95;;;27.00;44.50;;;;;;4963581;28;20038;-67
2023/07/21 03:16:54;;;;;;;0.80;0.75;;;26.90;44.40;;;;;;4978936;28;20088;-67
2023/07/21 03:19:19;;;;;;;1.42;1.00;;;26.90;44.40;;;;;;4977039;28;20428;-68
2023/07/21 03:21:45;;;;;;;0.90;0.80;;;26.90;44.40;;;;;;4977270;28;20038;-67
2023/07/21 03:24:11;;;;;;;1.10;0.80;;;26.90;44.40;;;;;;4959299;28;20973;-68
2023/07/21 03:26:36;;;;;;;0.82;0.80;;;26.90;44.40;;;;;;4978397;28;20027;-68
2023/07/21 03:29:03;;;;;;;1.67;0.80;;;26.90;44.50;;;;;;4962637;28;20067;-67
2023/07/21 03:31:28;;;;;;;1.25;0.80;;;26.90;44.40;;;;;;4977292;28;20035;-67
2023/07/21 03:33:54;;;;;;;1.00;0.85;;;26.90;44.40;;;;;;4980530;28;20033;-67
2023/07/21 03:36:20;;;;;;;1.23;0.80;;;26.90;44.50;;;;;;4977873;28;20034;-67
2023/07/21 03:38:46;;;;;;;1.17;0.85;;;26.90;45.00;;;;;;4978989;28;20156;-67
2023/07/21 03:41:12;;;;;;;1.10;0.90;;;26.90;44.50;;;;;;4977979;28;20170;-67
2023/07/21 03:43:38;;;;;;;1.08;0.80;;;26.90;44.50;;;;;;4977796;28;20027;-67
2023/07/21 03:46:05;;;;;;;1.00;0.80;;;26.90;44.50;;;;;;4962035;28;20029;-68
2023/07/21 03:48:32;;;;;;;0.82;0.73;;;26.90;44.50;;;;;;4980380;28;20398;-68
2023/07/21 03:51:05;;;;;;;1.20;0.90;;;26.90;44.50;;;;;;4981855;28;20037;-68
2023/07/21 03:53:31;;;;;;;0.80;0.70;;;26.80;44.40;;;;;;4980683;28;20041;-68
2023/07/21 03:55:57;;;;;;;0.82;0.73;;;26.80;44.50;;;;;;4981213;28;20034;-67
2023/07/21 03:58:23;;;;;;;1.02;0.80;;;26.90;44.50;;;;;;4982888;28;20464;-67
2023/07/21 04:00:49;;;;;;;1.98;0.90;;;26.80;44.50;;;;;;4980961;28;20512;-68
2023/07/21 04:03:15;;;;;;;0.90;0.70;;;26.80;44.50;;;;;;4972516;28;20029;-68
2023/07/21 04:05:41;;;;;;;0.85;0.73;;;26.80;44.50;;;;;;4981806;28;20029;-67
2023/07/21 04:08:07;;;;;;;1.02;0.80;;;26.80;45.00;;;;;;4979733;28;20729;-68
2023/07/21 04:10:33;;;;;;;1.00;0.70;;;26.80;44.50;;;;;;4983356;28;20034;-67
2023/07/21 04:13:00;;;;;;;0.98;0.80;;;26.80;44.50;;;;;;4982512;28;20120;-68
2023/07/21 04:15:28;;;;;;;1.10;0.80;;;26.80;44.50;;;;;;4979793;28;20455;-67
2023/07/21 04:17:53;;;;;;;0.82;0.70;;;26.80;44.50;;;;;;4965209;28;20033;-67
2023/07/21 04:20:20;;;;;;;1.20;0.80;;;26.80;44.50;;;;;;4982184;28;20482;-67
2023/07/21 04:22:45;;;;;;;1.02;0.73;;;26.80;44.50;;;;;;4978577;28;20066;-67
2023/07/21 04:25:11;;;;;;;1.23;0.90;;;26.80;44.50;;;;;;4966948;28;20065;-67
2023/07/21 04:27:38;;;;;;;0.90;0.77;;;26.80;45.00;;;;;;4963497;28;20030;-68
2023/07/21 04:30:05;;;;;;;1.48;0.70;;;26.80;44.50;;;;;;4982938;28;20034;-67
2023/07/21 04:32:31;;;;;;;1.67;1.00;;;26.80;44.50;;;;;;4982411;28;20034;-67
2023/07/21 04:34:57;;;;;;;1.15;0.90;;;26.80;44.50;;;;;;4972346;28;20026;-67
2023/07/21 04:37:22;;;;;;;1.23;0.95;;;26.70;44.50;;;;;;4978577;28;20121;-67
2023/07/21 04:39:48;;;;;;;1.42;0.98;;;26.70;44.50;;;;;;4965405;28;20042;-67
2023/07/21 04:42:14;;;;;;;1.00;0.80;;;26.70;44.50;;;;;;4979175;28;20475;-68
2023/07/21 04:44:44;;;;;;;1.52;0.90;;;26.70;44.50;;;;;;4983160;28;20033;-67
2023/07/21 04:47:10;;;;;;;1.27;0.90;;;26.70;44.50;;;;;;4971706;28;20486;-67
2023/07/21 04:49:38;;;;;;;0.85;0.80;;;26.70;44.50;;;;;;4981058;28;20037;-67
2023/07/21 04:52:04;;;;;;;0.88;0.80;;;26.70;44.50;;;;;;4966126;28;20057;-68
2023/07/21 04:54:30;;;;;;;1.00;0.85;;;26.70;44.50;;;;;;4963856;28;20118;-67
2023/07/21 04:56:55;;;;;;;1.02;0.80;;;26.70;44.50;;;;;;4965445;28;20359;-67
2023/07/21 04:59:21;;;;;;;1.10;0.80;;;26.70;44.50;;;;;;4981569;28;20034;-67
2023/07/21 05:01:47;;;;;;;1.77;1.02;;;26.70;44.50;;;;;;4981897;28;20033;-67
2023/07/21 05:04:16;;;;;;;1.42;0.90;;;26.70;44.50;;;;;;4964586;28;20118;-67
2023/07/21 05:06:47;;;;;;;1.70;0.90;;;26.70;44.50;;;;;;4966604;28;20037;-67
2023/07/21 05:09:13;;;;;;;2.63;0.95;;;26.70;44.50;;;;;;4968380;28;20037;-67
2023/07/21 05:11:39;;;;;;;1.15;0.90;;;26.70;44.50;;;;;;4981427;28;20027;-67
2023/07/21 05:14:04;;;;;;;1.30;0.82;;;26.70;44.60;;;;;;4980265;28;20022;-66
2023/07/21 05:16:31;;;;;;;2.42;0.90;;;26.70;44.60;;;;;;4966690;28;20031;-66
2023/07/21 05:18:58;;;;;;;1.20;0.90;;;26.70;44.60;;;;;;4980443;28;20118;-66
2023/07/21 05:21:26;;;;;;;1.23;0.82;;;26.70;45.10;;;;;;4980935;28;20034;-66
2023/07/21 05:23:52;;;;;;;1.23;0.88;;;26.70;44.60;;;;;;4969042;28;20123;-66
2023/07/21 05:26:17;;;;;;;1.45;0.90;;;26.70;44.60;;;;;;4978747;28;20024;-66
2023/07/21 05:28:43;;;;;;;1.00;0.80;;;26.70;44.50;;;;;;4979645;28;20015;-66
2023/07/21 05:31:12;;;;;;;0.80;0.80;;;26.70;44.60;;;;;;4969714;28;20061;-66
2023/07/21 05:33:37;;;;;;;1.00;0.80;;;26.60;44.50;;;;;;4980300;28;20124;-67
2023/07/21 05:36:09;;;;;;;1.40;0.82;;;26.70;44.60;;;;;;4979148;28;20122;-67
2023/07/21 05:38:35;;;;;;;1.42;0.90;;;26.60;44.50;;;;;;4978419;28;20526;-66
2023/07/21 05:41:02;;;;;;;0.75;0.75;;;26.60;44.60;;;;;;4963757;28;20176;-66
2023/07/21 05:43:27;;;;;;;1.38;1.00;;;26.60;44.60;;;;;;4980012;28;20027;-66
2023/07/21 05:45:53;;;;;;;1.50;0.93;;;26.60;45.10;;;;;;4978849;28;20535;-66
2023/07/21 05:48:19;;;;;;;0.93;0.80;;;26.60;44.60;;;;;;4978991;28;20035;-66
2023/07/21 05:50:45;;;;;;;1.48;1.00;;;26.60;44.60;;;;;;4978166;28;20558;-66
2023/07/21 05:53:10;;;;;;;1.20;0.90;;;26.60;44.60;;;;;;4976654;28;20026;-67
2023/07/21 05:55:40;;;;;;;1.00;0.90;;;26.60;44.60;;;;;;4979034;28;20050;-66
2023/07/21 05:58:08;;;;;;;0.80;0.80;;;26.60;44.60;;;;;;4978747;28;20133;-66
2023/07/21 06:00:39;;;;;;;0.95;0.80;;;26.60;44.60;;;;;;4964373;28;20458;-66
2023/07/21 06:03:05;;;;;;;2.17;0.80;;;26.60;44.60;;;;;;4981353;28;20023;-66
2023/07/21 06:05:32;;;;;;;2.75;0.80;;;26.60;44.70;;;;;;4979336;28;20027;-66
2023/07/21 06:08:04;;;;;;;1.20;0.80;;;26.60;44.70;;;;;;4978450;28;20065;-68
2023/07/21 06:10:30;;;;;;;1.30;1.00;;;26.60;44.70;;;;;;4980415;28;20042;-66
2023/07/21 06:12:56;;;;;;;1.30;0.90;;;26.60;44.70;;;;;;4978084;28;20026;-66
2023/07/21 06:15:24;;;;;;;0.80;0.70;;;26.60;44.70;;;;;;4978350;28;20026;-66
2023/07/21 06:17:50;;;;;;;0.90;0.80;;;26.60;44.70;;;;;;4970618;28;20148;-66
2023/07/21 06:20:16;;;;;;;1.02;0.80;;;26.60;44.80;;;;;;4978463;28;20030;-66
2023/07/21 06:22:41;;;;;;;0.93;0.77;;;26.50;44.60;;;;;;4981258;28;20376;-66
2023/07/21 06:25:07;;;;;;;1.20;0.88;;;26.60;44.80;;;;;;4979872;28;20030;-66
2023/07/21 06:27:33;;;;;;;1.23;0.75;;;26.60;44.80;;;;;;4979260;28;20023;-65
2023/07/21 06:29:59;;;;;;;0.95;0.70;;;26.60;44.80;;;;;;4965440;28;20077;-66
2023/07/21 06:32:25;;;;;;;1.30;0.98;;;26.50;44.70;;;;;;4969556;28;20038;-66
2023/07/21 06:34:50;;;;;;;1.10;0.90;;;26.50;44.70;;;;;;4969145;28;20122;-66
2023/07/21 06:37:16;;;;;;;1.25;0.80;;;26.50;44.70;;;;;;4977037;28;20505;-66
2023/07/21 06:39:41;;;;;;;0.90;0.80;;;26.60;44.80;;;;;;4978212;28;20113;-66
2023/07/21 06:42:10;;;;;;;0.80;0.70;;;26.50;44.80;;;;;;4961115;28;20426;-66
2023/07/21 06:44:36;;;;;;;1.30;0.90;;;26.50;44.80;;;;;;4965019;28;20033;-66
2023/07/21 06:47:02;;;;;;;1.20;0.70;;;26.50;44.80;;;;;;4978931;28;20471;-66
2023/07/21 06:49:27;;;;;;;1.20;0.90;;;26.50;44.80;;;;;;4977139;28;20368;-66
2023/07/21 06:51:53;;;;;;;1.05;0.73;;;26.50;44.80;;;;;;4978382;28;20039;-66
2023/07/21 06:54:19;;;;;;;0.90;0.80;;;26.50;44.80;;;;;;4978311;28;20046;-66
2023/07/21 06:56:48;;;;;;;0.90;0.80;;;26.50;44.80;;;;;;4977556;28;20130;-66
2023/07/21 06:59:14;;;;;;;0.90;0.80;;;26.50;44.80;;;;;;4979789;28;20076;-66
2023/07/21 07:01:40;;;;;;;0.75;0.70;;;26.50;44.80;;;;;;4978425;28;20478;-66
2023/07/21 07:04:06;;;;;;;0.98;0.80;;;26.50;44.80;;;;;;4969233;28;20022;-66
2023/07/21 07:06:32;;;;;;;1.00;0.80;;;26.50;44.80;;;;;;4978118;28;20598;-66
2023/07/21 07:08:58;;;;;;;1.25;0.90;;;26.50;44.80;;;;;;4967890;28;20344;-66
2023/07/21 07:11:23;;;;;;;0.90;0.75;;;26.50;44.80;;;;;;4961036;28;20525;-66
2023/07/21 07:13:49;;;;;;;1.17;0.85;;;26.50;44.90;;;;;;4977331;28;20104;-66
2023/07/21 07:16:19;;;;;;;1.15;0.80;;;26.50;44.90;;;;;;4964266;28;20105;-67
2023/07/21 07:18:44;;;;;;;0.77;0.70;;;26.50;44.90;;;;;;4962791;28;20502;-66
2023/07/21 07:21:10;;;;;;;1.25;0.90;;;26.50;44.90;;;;;;4979099;28;20031;-66
2023/07/21 07:23:36;;;;;;;0.70;0.63;;;26.50;44.90;;;;;;4962049;28;20026;-66
2023/07/21 07:26:01;;;;;;;0.90;0.73;;;26.50;45.40;;;;;;4982868;28;20034;-66
2023/07/21 07:28:28;;;;;;;0.95;0.80;;;26.50;44.90;;;;;;4973467;28;20106;-66
2023/07/21 07:30:53;;;;;;;1.08;0.80;;;26.50;44.90;;;;;;4983611;28;20034;-66
2023/07/21 07:33:19;;;;;;;1.35;0.90;;;26.50;45.00;;;;;;4981645;28;20034;-66
2023/07/21 07:35:52;;;;;;;1.00;0.73;;;26.40;44.90;;;;;;4982104;28;20065;-66
2023/07/21 07:38:26;;;;;;;1.25;0.85;;;26.50;45.00;;;;;;4984291;28;20087;-66
2023/07/21 07:41:03;;;;;;;1.10;0.90;;;26.50;45.00;;;;;;4973522;28;20459;-66
2023/07/21 07:43:28;;;;;;;1.17;0.70;;;26.50;45.00;;;;;;4963669;28;20428;-66
2023/07/21 07:45:57;;;;;;;1.02;0.80;;;26.40;44.90;;;;;;4965422;28;20088;-66
2023/07/21 07:48:23;;;;;;;1.13;0.80;;;26.40;44.90;;;;;;4982217;28;20050;-66
2023/07/21 07:50:51;;;;;;;1.50;1.00;;;26.50;45.00;;;;;;4982778;28;20058;-66
2023/07/21 07:53:20;;;;;;;1.15;0.85;;;26.40;44.90;;;;;;4979994;28;20031;-66
2023/07/21 07:55:46;;;;;;;1.30;0.80;;;26.40;44.90;;;;;;4965238;28;20038;-66
2023/07/21 07:58:12;;;;;;;1.25;0.70;;;26.40;45.50;;;;;;4982292;28;20427;-66
2023/07/21 08:00:41;;;;;;;0.88;0.70;;;26.50;45.00;;;;;;4972390;28;20057;-66
2023/07/21 08:03:07;;;;;;;;;;;26.40;45.00;;;;;;4966424;28;20026;-66
2023/07/21 08:05:35;;;;;;;1.33;0.80;;;26.40;45.00;;;;;;4982617;28;20354;-66
2023/07/21 08:08:05;;;;;;;1.10;0.80;;;26.40;45.00;;;;;;4971776;28;20440;-66
2023/07/21 08:10:32;;;;;;;1.13;0.82;;;26.40;45.00;;;;;;4970421;28;20416;-66
2023/07/21 08:13:00;;;;;;;1.00;0.80;;;26.40;45.00;;;;;;4966496;28;20395;-66
2023/07/21 08:15:26;;;;;;;0.95;0.80;;;26.40;45.10;;;;;;4982196;28;20023;-66
2023/07/21 08:17:52;;;;;;;0.80;0.60;;;26.40;45.00;;;;;;4972259;28;20092;-66
2023/07/21 08:20:19;;;;;;;0.90;0.70;;;26.40;45.00;;;;;;4964596;28;20033;-66
2023/07/21 08:22:53;;;;;;;0.90;0.77;;;26.40;45.00;;;;;;4981847;28;20034;-66
2023/07/21 08:25:20;;;;;;;1.08;0.68;;;26.40;45.00;;;;;;4963274;28;20034;-66
2023/07/21 08:27:46;;;;;;;0.77;0.70;;;26.40;45.00;;;;;;4964063;28;20022;-66
2023/07/21 08:30:15;;;;;;;0.63;0.63;;;26.40;45.10;;;;;;4971374;28;20038;-62
2023/07/21 08:32:41;;;;;;;0.93;0.70;;;26.40;45.10;;;;;;4980371;28;20027;-66
2023/07/21 08:35:08;;;;;;;0.77;0.70;;;26.40;45.10;;;;;;4962549;28;20042;-66
2023/07/21 08:37:34;;;;;;;1.10;0.70;;;26.40;45.10;;;;;;4982677;28;20034;-65
2023/07/21 08:40:00;;;;;;;1.20;0.80;;;26.40;45.10;;;;;;4963052;28;20101;-66
2023/07/21 08:42:26;;;;;;;1.15;0.70;;;26.40;45.10;;;;;;4966541;28;20086;-66
2023/07/21 08:44:56;;;;;;;0.70;0.70;;;26.40;45.10;;;;;;4968080;28;20397;-65
2023/07/21 08:47:23;;;;;;;0.68;0.65;;;26.40;45.10;;;;;;4978430;28;20045;-66
2023/07/21 08:49:49;;;;;;;0.75;0.70;;;26.40;45.10;;;;;;4970792;28;20134;-66
2023/07/21 08:52:20;;;;;;;1.00;0.80;;;26.40;45.10;;;;;;4964182;28;20451;-66
2023/07/21 08:54:46;;;;;;;0.88;0.73;;;26.40;45.10;;;;;;4964912;28;20033;-66
2023/07/21 08:57:12;;;;;;;0.98;0.80;;;26.40;45.10;;;;;;4982471;28;20031;-66
2023/07/21 08:59:41;;;;;;;0.80;0.70;;;26.40;45.10;;;;;;4963887;28;20583;-66
2023/07/21 09:02:08;;;;;;;0.70;0.70;;;26.40;45.10;;;;;;4982512;28;20077;-66
2023/07/21 09:04:41;;;;;;;0.80;0.70;;;26.40;45.10;;;;;;4980020;28;20585;-66
2023/07/21 09:07:07;;;;;;;0.88;0.75;;;26.40;45.10;;;;;;4980933;28;20031;-66
2023/07/21 09:09:35;;;;;;;1.05;0.70;;;26.40;45.10;;;;;;4961351;28;20034;-67
2023/07/21 09:12:01;;;;;;;0.82;0.60;;;26.40;45.10;;;;;;4980574;28;20034;-65
2023/07/21 09:14:41;;;;;;;0.90;0.70;;;26.40;45.10;;;;;;4979766;28;20034;-66
2023/07/21 09:17:08;;;;;;;0.90;0.77;;;26.40;45.20;;;;;;4980027;28;20109;-66
2023/07/21 09:19:42;;;;;;;0.85;0.68;;;26.40;45.10;;;;;;4971567;28;20026;-66
2023/07/21 09:22:09;;;;;;;1.02;0.73;;;26.40;45.20;;;;;;4963464;28;20077;-67
2023/07/21 09:24:37;;;;;;;0.73;0.73;;;26.40;45.20;;;;;;4978564;28;20080;-66
2023/07/21 09:27:13;;;;;;;0.85;0.70;;;26.30;45.10;;;;;;4971143;28;20104;-67
2023/07/21 09:29:40;;;;;;;1.00;0.80;;;26.40;45.20;;;;;;4979832;28;20496;-66
2023/07/21 09:32:19;;;;;;;0.95;0.73;;;26.40;45.20;;;;;;4978583;28;20026;-66
2023/07/21 09:34:59;;;;;;;1.38;0.80;;;26.40;45.30;;;;;;4962203;28;20117;-66
2023/07/21 09:37:27;;;;;;;1.00;0.77;;;26.40;45.20;;;;;;4981648;28;20030;-67
2023/07/21 09:39:55;;;;;;;1.17;0.90;;;26.30;45.20;;;;;;4977746;28;20031;-66
2023/07/21 09:42:25;;;;;;;1.00;0.80;;;26.30;45.20;;;;;;4962346;28;20428;-66
2023/07/21 09:44:52;;;;;;;0.70;0.70;;;26.40;45.80;;;;;;4982004;28;20026;-67
2023/07/21 09:47:18;;;;;;;1.33;0.80;;;26.40;45.30;;;;;;4981359;28;20093;-65
2023/07/21 09:49:45;;;;;;;1.10;0.70;;;26.40;45.30;;;;;;4981132;28;20022;-66
2023/07/21 09:52:15;;;;;;;0.65;0.60;;;26.40;45.30;;;;;;4979575;28;20402;-66
2023/07/21 09:54:44;;;;;;;0.70;0.70;;;26.30;45.20;;;;;;4976089;28;20038;-66
2023/07/21 09:57:14;;;;;;;1.20;0.82;;;26.40;45.30;;;;;;4978339;28;20100;-66
2023/07/21 09:59:43;;;;;;;0.95;0.80;;;26.30;45.20;;;;;;4978902;28;20026;-66
2023/07/21 10:02:10;;;;;;;;;;;26.40;45.30;;;;;;4963521;28;20102;-66
2023/07/21 10:04:35;;;;;;;0.70;0.70;;;26.30;45.20;;;;;;4970745;28;19921;-66
2023/07/21 10:07:06;;;;;;;1.05;0.75;;;26.40;45.30;;;;;;4978242;28;20467;-66
2023/07/21 10:09:36;;;;;;;0.70;0.70;;;26.40;45.30;;;;;;4978471;28;20363;-66
2023/07/21 10:12:16;;;;;;;0.70;0.70;;;26.40;45.30;;;;;;4970034;28;20097;-66
2023/07/21 10:14:42;;;;;;;2.45;0.85;;;26.30;45.20;;;;;;4979289;28;20046;-66
2023/07/21 10:17:09;;;;;;;1.00;0.70;;;26.40;45.30;;;;;;4964503;28;20427;-66
2023/07/21 10:19:47;;;;;;;0.88;0.80;;;26.30;45.20;;;;;;4979959;28;20023;-66
2023/07/21 10:22:26;;;;;;;1.20;0.90;;;26.30;45.30;;;;;;4962428;28;20053;-66
2023/07/21 10:24:54;;;;;;;0.80;0.80;;;26.30;45.20;;;;;;4978249;28;20514;-66
2023/07/21 10:27:22;;;;;;;0.90;0.70;;;26.30;45.30;;;;;;4962369;28;20471;-66
2023/07/21 10:29:51;;;;;;;1.00;0.73;;;26.40;45.30;;;;;;4979169;28;20038;-66
2023/07/21 10:32:24;;;;;;;0.85;0.80;;;26.30;45.30;;;;;;4962265;28;20053;-66
2023/07/21 10:34:52;;;;;;;0.80;0.80;;;26.40;45.30;;;;;;4978670;28;20030;-65
2023/07/21 10:37:18;;;;;;;0.77;0.70;;;26.30;45.30;;;;;;4980367;28;20104;-66
2023/07/21 10:39:53;;;;;;;0.98;0.73;;;26.30;45.80;;;;;;4977433;28;20377;-66
2023/07/21 10:42:19;;;;;;;1.00;0.90;;;26.30;45.30;;;;;;4979173;28;20050;-67
2023/07/21 10:44:47;;;;;;;0.77;0.73;;;26.40;45.30;;;;;;4964190;28;20019;-67
2023/07/21 10:47:15;;;;;;;0.85;0.77;;;26.30;45.30;;;;;;4977747;28;20030;-67
2023/07/21 10:49:42;;;;;;;1.33;0.88;;;26.30;45.30;;;;;;4969632;28;20038;-67
2023/07/21 10:52:08;;;;;;;0.90;0.75;;;26.40;45.30;;;;;;4980367;28;20044;-67
2023/07/21 10:54:35;;;;;;;1.13;0.60;;;26.40;45.30;;;;;;4961008;28;20405;-67
2023/07/21 10:57:01;;;;;;;1.20;0.80;;;26.40;45.30;;;;;;4977466;28;20114;-67
2023/07/21 10:59:33;;;;;;;0.80;0.80;;;26.30;45.30;;;;;;4977437;28;20084;-68
2023/07/21 11:02:00;;;;;;;1.13;0.80;;;26.30;45.30;;;;;;4969469;28;20117;-67
2023/07/21 11:04:26;;;;;;;0.73;0.70;;;26.30;45.30;;;;;;4962449;28;20037;-67
2023/07/21 11:06:53;;;;;;;0.85;0.80;;;26.30;45.30;;;;;;4979044;28;20541;-66
2023/07/21 11:09:21;;;;;;;0.98;0.80;;;26.40;45.40;;;;;;4962389;28;20069;-66
2023/07/21 11:11:48;;;;;;;1.08;0.80;;;26.40;45.40;;;;;;4976834;28;20069;-66
2023/07/21 11:14:16;;;;;;;0.80;0.80;;;26.40;45.40;;;;;;4963551;28;20460;-65
2023/07/21 11:16:49;;;;;;;0.73;0.70;;;26.30;45.30;;;;;;4963080;28;20050;-65
2023/07/21 11:19:16;;;;;;;0.70;0.70;;;26.30;45.30;;;;;;4978821;28;20051;-65
2023/07/21 11:21:41;;;;;;;1.40;0.65;;;26.30;45.30;;;;;;4977816;28;20106;-65
2023/07/21 11:24:08;;;;;;;0.80;0.70;;;26.40;45.40;;;;;;4977461;28;20172;-66
2023/07/21 11:26:38;;;;;;;0.70;0.70;;;26.30;45.30;;;;;;4977272;28;20101;-65
2023/07/21 11:29:06;;;;;;;0.65;0.65;;;26.40;45.40;;;;;;4977595;28;20501;-65
2023/07/21 11:31:36;;;;;;;1.00;0.70;;;26.40;45.40;;;;;;4964645;28;20049;-65
2023/07/21 11:34:03;;;;;;;0.85;0.70;;;26.40;45.40;;;;;;4979194;28;20339;-65
2023/07/21 11:36:30;;;;;;;1.15;0.80;;;26.40;45.40;;;;;;4978480;28;20042;-65
2023/07/21 11:39:04;;;;;;;0.88;0.70;;;26.40;46.00;;;;;;4979341;28;20026;-65
2023/07/21 11:41:39;;;;;;;0.73;0.70;;;26.40;45.40;;;;;;4976253;28;20034;-65
2023/07/21 11:44:10;;;;;;;0.63;0.60;;;26.40;45.40;;;;;;4978028;28;20084;-65
2023/07/21 11:46:37;;;;;;;0.80;0.80;;;26.40;45.40;;;;;;4978442;28;20428;-65
2023/07/21 11:49:10;;;;;;;0.75;0.75;;;26.40;45.40;;;;;;4977866;28;20035;-65
2023/07/21 11:51:52;;;;;;;0.80;0.70;;;26.40;45.40;;;;;;4977326;28;20479;-66
2023/07/21 11:54:26;;;;;;;0.95;0.70;;;26.40;45.40;;;;;;4977309;28;20498;-65
2023/07/21 11:56:54;;;;;;;0.88;0.80;;;26.40;45.40;;;;;;4975045;28;20077;-66
2023/07/21 11:59:21;;;;;;;0.70;0.70;;;26.40;45.40;;;;;;4961486;28;20034;-65
2023/07/21 12:01:47;;;;;;;1.02;0.80;;;26.40;45.40;;;;;;4978707;28;20133;-65
2023/07/21 12:04:13;;;;;;;0.70;0.70;;;26.40;45.40;;;;;;4977540;28;20070;-65
2023/07/21 12:06:39;;;;;;;0.70;0.70;;;26.40;45.40;;;;;;4978850;28;20042;-65
2023/07/21 12:09:06;;;;;;;0.93;0.82;;;26.40;45.40;;;;;;4978280;28;20033;-65
2023/07/21 12:11:36;;;;;;;0.98;0.77;;;26.40;45.40;;;;;;4980126;28;20027;-65
2023/07/21 12:14:02;;;;;;;0.82;0.70;;;26.40;45.40;;;;;;4983251;28;20022;-65
2023/07/21 12:16:29;;;;;;;1.00;0.70;;;26.40;45.40;;;;;;4983060;28;20038;-65
2023/07/21 12:18:55;;;;;;;0.70;0.70;;;26.40;45.40;;;;;;4966284;28;20450;-66
2023/07/21 12:21:21;;;;;;;0.77;0.70;;;26.40;45.40;;;;;;4981778;28;20503;-65
2023/07/21 12:23:47;;;;;;;0.95;0.70;;;26.40;45.40;;;;;;4984215;28;20033;-66
2023/07/21 12:26:13;;;;;;;0.70;0.60;;;26.40;45.40;;;;;;4979121;28;20452;-65
2023/07/21 12:28:41;;;;;;;0.95;0.80;;;26.40;45.40;;;;;;4981191;28;20514;-65
2023/07/21 12:31:06;;;;;;;0.57;0.57;;;26.40;45.50;;;;;;4981240;28;20031;-65
2023/07/21 12:33:35;;;;;;;0.93;0.70;;;26.40;45.40;;;;;;4981215;28;20037;-65
2023/07/21 12:36:01;;;;;;;0.70;0.70;;;26.40;45.50;;;;;;4980385;28;20089;-65
2023/07/21 12:38:27;;;;;;;1.00;0.80;;;26.40;45.40;;;;;;4981106;28;20487;-65
2023/07/21 12:40:52;;;;;;;0.93;0.80;;;26.40;45.40;;;;;;4980488;28;20022;-65
2023/07/21 12:43:18;;;;;;;0.60;0.60;;;26.40;45.40;;;;;;4980075;28;20057;-65
2023/07/21 12:45:44;;;;;;;0.93;0.70;;;26.40;45.40;;;;;;4982128;28;20667;-65
2023/07/21 12:48:10;;;;;;;0.63;0.63;;;26.40;45.40;;;;;;4983227;28;20224;-65